createdAt,value
2023-04-25T00:02:20.934Z,7.42
2023-04-25T00:04:50.883Z,7.43
2023-04-25T00:07:27.612Z,7.41
2023-04-25T00:09:56.244Z,7.39
2023-04-25T00:12:25.427Z,7.35
2023-04-25T00:14:53.986Z,7.35
2023-04-25T00:17:23.057Z,7.36
2023-04-25T00:19:51.412Z,7.36
2023-04-25T00:22:19.738Z,7.39
2023-04-25T00:24:49.325Z,7.40
2023-04-25T00:27:19.430Z,7.41
2023-04-25T00:29:47.611Z,7.35
2023-04-25T00:32:16.495Z,7.33
2023-04-25T00:34:44.965Z,7.28
2023-04-25T00:37:14.738Z,7.29
2023-04-25T00:39:43.464Z,7.27
2023-04-25T00:42:14.202Z,7.28
2023-04-25T00:44:43.289Z,7.28
2023-04-25T00:47:13.539Z,7.23
2023-04-25T00:49:41.922Z,7.25
2023-04-25T00:52:10.196Z,7.21
2023-04-25T00:54:38.783Z,7.13
2023-04-25T00:57:07.056Z,7.15
2023-04-25T00:59:38.632Z,7.11
2023-04-25T01:02:07.094Z,6.99
2023-04-25T01:04:38.426Z,6.94
2023-04-25T01:07:07.080Z,6.92
2023-04-25T01:09:54.415Z,6.92
2023-04-25T01:12:23.081Z,6.93
2023-04-25T01:14:55.815Z,6.95
2023-04-25T01:17:25.081Z,6.95
2023-04-25T01:19:53.446Z,6.94
2023-04-25T01:22:23.318Z,6.96
2023-04-25T01:24:52.034Z,6.95
2023-04-25T01:27:21.902Z,6.95
2023-04-25T01:29:50.444Z,6.94
2023-04-25T01:32:19.465Z,6.93
2023-04-25T01:34:48.183Z,6.96
2023-04-25T01:37:16.574Z,6.94
2023-04-25T01:39:48.509Z,6.96
2023-04-25T01:42:17.940Z,6.91
2023-04-25T01:44:46.465Z,6.89
2023-04-25T01:47:15.027Z,6.87
2023-04-25T01:49:43.395Z,6.83
2023-04-25T01:52:11.641Z,6.81
2023-04-25T01:54:45.159Z,6.80
2023-04-25T01:57:16.669Z,6.82
2023-04-25T01:59:46.353Z,6.82
2023-04-25T02:02:14.685Z,6.80
2023-04-25T02:04:44.886Z,6.81
2023-04-25T02:07:13.250Z,6.81
2023-04-25T02:09:41.526Z,6.82
2023-04-25T02:12:10.885Z,6.80
2023-04-25T02:14:41.071Z,6.84
2023-04-25T02:17:09.631Z,6.83
2023-04-25T02:19:38.016Z,6.82
2023-04-25T02:22:06.446Z,6.81
2023-04-25T02:24:35.856Z,6.80
2023-04-25T02:27:04.240Z,6.79
2023-04-25T02:29:35.336Z,6.77
2023-04-25T02:32:05.296Z,6.83
2023-04-25T02:34:34.036Z,6.84
2023-04-25T02:37:02.343Z,6.90
2023-04-25T02:39:32.132Z,6.92
2023-04-25T02:42:00.379Z,6.92
2023-04-25T02:44:28.628Z,6.93
2023-04-25T02:46:57.054Z,6.92
2023-04-25T02:49:26.919Z,6.91
2023-04-25T02:51:55.151Z,6.90
2023-04-25T02:54:23.447Z,6.86
2023-04-25T02:56:52.111Z,6.87
2023-04-25T02:59:20.440Z,6.87
2023-04-25T03:01:48.742Z,6.89
2023-04-25T03:04:16.972Z,6.87
2023-04-25T03:06:46.617Z,6.85
2023-04-25T03:09:14.943Z,6.82
2023-04-25T03:11:43.118Z,6.74
2023-04-25T03:14:14.286Z,6.68
2023-04-25T03:16:42.663Z,6.61
2023-04-25T03:19:12.915Z,6.57
2023-04-25T03:21:41.193Z,6.54
2023-04-25T03:24:13.241Z,6.58
2023-04-25T03:26:41.426Z,6.55
2023-04-25T03:29:10.222Z,6.61
2023-04-25T03:31:41.473Z,6.60
2023-04-25T03:34:09.693Z,6.59
2023-04-25T03:36:39.848Z,6.64
2023-04-25T03:39:12.651Z,6.59
2023-04-25T03:41:40.875Z,6.65
2023-04-25T03:44:09.228Z,6.61
2023-04-25T03:46:37.571Z,6.59
2023-04-25T03:49:05.974Z,6.58
2023-04-25T03:51:34.240Z,6.56
2023-04-25T03:54:02.691Z,6.51
2023-04-25T03:56:32.568Z,6.54
2023-04-25T03:59:00.982Z,6.52
2023-04-25T04:01:30.662Z,6.45
2023-04-25T04:03:59.231Z,6.47
2023-04-25T04:06:27.727Z,6.46
2023-04-25T04:08:56.636Z,6.48
2023-04-25T04:11:25.038Z,6.48
2023-04-25T04:13:54.707Z,6.46
2023-04-25T04:16:26.161Z,6.41
2023-04-25T04:18:54.434Z,6.39
2023-04-25T04:21:23.075Z,6.37
2023-04-25T04:23:51.584Z,6.37
2023-04-25T04:26:24.465Z,6.32
2023-04-25T04:28:52.989Z,6.31
2023-04-25T04:31:22.913Z,6.36
2023-04-25T04:33:52.169Z,6.39
2023-04-25T04:36:23.175Z,6.47
2023-04-25T04:38:52.256Z,6.49
2023-04-25T04:41:22.259Z,6.50
2023-04-25T04:43:52.841Z,6.50
2023-04-25T04:46:22.948Z,6.51
2023-04-25T04:48:51.320Z,6.50
2023-04-25T04:51:19.857Z,6.61
2023-04-25T04:53:51.439Z,6.65
2023-04-25T04:56:21.988Z,6.66
2023-04-25T04:58:51.642Z,6.62
2023-04-25T05:01:19.941Z,6.63
2023-04-25T05:03:51.038Z,6.66
2023-04-25T05:06:20.880Z,6.67
2023-04-25T05:08:49.172Z,6.71
2023-04-25T05:11:17.447Z,6.78
2023-04-25T05:13:46.743Z,6.84
2023-04-25T05:16:20.142Z,6.86
2023-04-25T05:18:50.169Z,6.88
2023-04-25T05:21:18.695Z,6.92
2023-04-25T05:23:47.048Z,7.00
2023-04-25T05:26:15.838Z,7.06
2023-04-25T05:28:44.102Z,7.14
2023-04-25T05:31:12.739Z,7.21
2023-04-25T05:33:41.148Z,7.26
2023-04-25T05:36:12.480Z,7.31
2023-04-25T05:38:41.286Z,7.33
2023-04-25T05:41:09.542Z,7.36
2023-04-25T05:43:37.950Z,7.41
2023-04-25T05:46:07.072Z,7.50
2023-04-25T05:48:37.123Z,7.61
2023-04-25T05:51:05.453Z,7.54
2023-04-25T05:53:35.225Z,7.55
2023-04-25T05:56:03.890Z,7.57
2023-04-25T05:58:32.114Z,7.60
2023-04-25T06:01:00.507Z,7.66
2023-04-25T06:03:28.898Z,7.73
2023-04-25T06:05:57.656Z,7.71
2023-04-25T06:08:26.548Z,7.68
2023-04-25T06:10:56.343Z,7.77
2023-04-25T06:13:24.878Z,7.71
2023-04-25T06:15:53.235Z,7.72
2023-04-25T06:18:21.576Z,7.74
2023-04-25T06:20:51.450Z,7.71
2023-04-25T06:23:19.814Z,7.70
2023-04-25T06:25:48.199Z,7.76
2023-04-25T06:28:18.070Z,7.74
2023-04-25T06:30:46.357Z,7.82
2023-04-25T06:33:14.701Z,7.92
2023-04-25T06:35:43.767Z,8.03
2023-04-25T06:38:12.376Z,8.09
2023-04-25T06:40:40.749Z,8.08
2023-04-25T06:43:09.138Z,8.16
2023-04-25T06:45:39.951Z,8.23
2023-04-25T06:48:08.345Z,8.26
2023-04-25T06:50:37.337Z,8.30
2023-04-25T06:53:05.665Z,8.33
2023-04-25T06:55:34.085Z,8.32
2023-04-25T06:58:03.586Z,8.40
2023-04-25T07:00:33.330Z,8.44
2023-04-25T07:03:03.403Z,8.48
2023-04-25T07:05:34.059Z,8.50
2023-04-25T07:08:02.497Z,8.54
2023-04-25T07:10:30.880Z,8.58
2023-04-25T07:12:59.273Z,8.60
2023-04-25T07:15:27.757Z,8.66
2023-04-25T07:17:56.186Z,8.71
2023-04-25T07:20:26.236Z,8.78
2023-04-25T07:22:54.673Z,8.86
2023-04-25T07:25:22.939Z,8.93
2023-04-25T07:27:51.173Z,9.05
2023-04-25T07:30:20.134Z,9.23
2023-04-25T07:32:48.909Z,9.40
2023-04-25T07:35:17.687Z,9.59
2023-04-25T07:37:47.508Z,9.74
2023-04-25T07:40:17.684Z,9.90
2023-04-25T07:42:46.123Z,10.07
2023-04-25T07:45:14.812Z,10.15
2023-04-25T07:47:46.163Z,10.23
2023-04-25T07:50:14.810Z,10.28
2023-04-25T07:52:43.082Z,10.41
2023-04-25T07:55:13.042Z,10.49
2023-04-25T07:57:43.121Z,10.48
2023-04-25T08:00:12.652Z,10.55
2023-04-25T08:02:41.362Z,10.61
2023-04-25T08:05:13.316Z,10.54
2023-04-25T08:07:42.045Z,10.51
2023-04-25T08:10:12.525Z,10.59
2023-04-25T08:12:40.917Z,10.70
2023-04-25T08:15:10.522Z,10.80
2023-04-25T08:17:39.070Z,10.84
2023-04-25T08:20:10.015Z,10.90
2023-04-25T08:22:38.683Z,10.91
2023-04-25T08:25:07.855Z,10.87
2023-04-25T08:27:43.578Z,10.76
2023-04-25T08:30:13.725Z,10.62
2023-04-25T08:32:42.195Z,10.56
2023-04-25T08:35:10.900Z,10.50
2023-04-25T08:37:41.518Z,10.49
2023-04-25T08:40:14.735Z,10.47
2023-04-25T08:42:44.916Z,10.47
2023-04-25T08:45:13.551Z,10.53
2023-04-25T08:47:42.700Z,10.58
2023-04-25T08:50:12.704Z,10.70
2023-04-25T08:52:46.993Z,10.84
2023-04-25T08:55:16.007Z,11.07
2023-04-25T08:57:47.478Z,11.27
2023-04-25T09:00:16.423Z,11.52
2023-04-25T09:02:45.498Z,11.63
2023-04-25T09:05:16.032Z,11.76
2023-04-25T09:07:44.660Z,11.80
2023-04-25T09:10:12.909Z,11.69
2023-04-25T09:12:41.950Z,11.58
2023-04-25T09:15:20.502Z,11.57
2023-04-25T09:17:58.424Z,11.48
2023-04-25T09:20:27.729Z,11.41
2023-04-25T09:23:06.495Z,11.41
2023-04-25T09:25:40.228Z,11.37
2023-04-25T09:28:09.229Z,11.39
2023-04-25T09:30:39.426Z,11.44
2023-04-25T09:33:09.593Z,11.46
2023-04-25T09:35:39.643Z,11.45
2023-04-25T09:38:14.125Z,11.42
2023-04-25T09:40:45.656Z,11.46
2023-04-25T09:43:22.930Z,11.55
2023-04-25T09:45:59.042Z,11.65
2023-04-25T09:48:30.077Z,11.79
2023-04-25T09:51:11.896Z,11.86
2023-04-25T09:53:44.781Z,12.00
2023-04-25T09:56:14.285Z,12.19
2023-04-25T09:58:43.672Z,12.42
2023-04-25T10:01:13.984Z,12.52
2023-04-25T10:03:43.677Z,12.62
2023-04-25T10:06:16.731Z,12.66
2023-04-25T10:08:47.155Z,12.77
2023-04-25T10:11:17.020Z,12.78
2023-04-25T10:13:45.762Z,12.83
2023-04-25T10:16:18.115Z,12.81
2023-04-25T10:18:46.948Z,12.69
2023-04-25T10:21:17.342Z,12.57
2023-04-25T10:23:46.621Z,12.42
2023-04-25T10:26:15.570Z,12.16
2023-04-25T10:29:00.800Z,11.93
2023-04-25T10:31:32.437Z,11.73
2023-04-25T10:34:02.625Z,11.62
2023-04-25T10:36:54.610Z,11.54
2023-04-25T10:39:27.091Z,11.50
2023-04-25T10:41:57.976Z,11.49
2023-04-25T10:44:29.919Z,11.46
2023-04-25T10:47:00.923Z,11.41
2023-04-25T10:49:34.377Z,11.36
2023-04-25T10:52:27.894Z,11.34
2023-04-25T10:54:57.408Z,11.36
2023-04-25T10:57:34.540Z,11.55
2023-04-25T11:00:18.477Z,11.78
2023-04-25T11:02:50.123Z,11.94
2023-04-25T11:05:24.184Z,12.06
2023-04-25T11:08:06.300Z,12.10
2023-04-25T11:10:37.537Z,12.13
2023-04-25T11:13:06.222Z,12.21
2023-04-25T11:15:34.648Z,12.32
2023-04-25T11:18:10.196Z,12.41
2023-04-25T11:20:40.110Z,12.44
2023-04-25T11:23:22.312Z,12.47
2023-04-25T11:25:52.277Z,12.49
2023-04-25T11:28:25.670Z,12.47
2023-04-25T11:30:55.234Z,12.66
2023-04-25T11:33:28.461Z,12.85
2023-04-25T11:35:57.987Z,13.08
2023-04-25T11:38:29.320Z,13.35
2023-04-25T11:40:58.083Z,13.61
2023-04-25T11:43:26.507Z,13.60
2023-04-25T11:45:56.802Z,13.60
2023-04-25T11:48:28.375Z,13.58
2023-04-25T11:50:56.756Z,13.62
2023-04-25T11:53:25.954Z,13.65
2023-04-25T11:55:57.282Z,13.68
2023-04-25T11:58:26.127Z,13.75
2023-04-25T12:00:54.481Z,13.80
2023-04-25T12:03:27.653Z,13.86
2023-04-25T12:06:06.627Z,13.98
2023-04-25T12:08:35.110Z,13.98
2023-04-25T12:11:03.632Z,13.90
2023-04-25T12:13:34.107Z,13.86
2023-04-25T12:16:03.034Z,13.78
2023-04-25T12:18:31.536Z,13.80
2023-04-25T12:21:03.462Z,13.83
2023-04-25T12:23:31.973Z,13.82
2023-04-25T12:26:00.374Z,13.79
2023-04-25T12:28:29.352Z,13.81
2023-04-25T12:31:03.141Z,13.86
2023-04-25T12:33:33.217Z,13.89
2023-04-25T12:36:06.407Z,13.90
2023-04-25T12:38:39.526Z,13.97
2023-04-25T12:41:08.160Z,14.05
2023-04-25T12:43:36.989Z,14.14
2023-04-25T12:46:11.120Z,14.30
2023-04-25T12:48:39.605Z,14.39
2023-04-25T12:51:09.315Z,14.49
2023-04-25T12:53:38.900Z,14.59
2023-04-25T12:56:08.207Z,14.61
2023-04-25T12:58:36.694Z,14.63
2023-04-25T13:01:07.027Z,14.53
2023-04-25T13:03:36.156Z,14.50
2023-04-25T13:06:26.186Z,14.40
2023-04-25T13:08:54.575Z,14.27
2023-04-25T13:11:22.937Z,14.32
2023-04-25T13:13:51.415Z,14.25
2023-04-25T13:16:21.986Z,14.26
2023-04-25T13:18:50.572Z,14.27
2023-04-25T13:21:20.371Z,14.17
2023-04-25T13:23:50.202Z,14.18
2023-04-25T13:26:22.285Z,14.11
2023-04-25T13:28:50.420Z,14.13
2023-04-25T13:31:18.709Z,14.14
2023-04-25T13:33:47.184Z,14.08
2023-04-25T13:36:17.106Z,14.01
2023-04-25T13:38:48.378Z,14.04
2023-04-25T13:41:24.578Z,14.12
2023-04-25T13:43:53.776Z,14.17
2023-04-25T13:46:40.989Z,14.22
2023-04-25T13:49:13.609Z,14.27
2023-04-25T13:51:43.466Z,14.27
2023-04-25T13:54:12.236Z,14.18
2023-04-25T13:56:43.452Z,14.15
2023-04-25T13:59:12.599Z,14.06
2023-04-25T14:01:43.747Z,14.13
2023-04-25T14:04:14.009Z,14.15
2023-04-25T14:06:42.461Z,14.13
2023-04-25T14:09:26.605Z,14.14
2023-04-25T14:11:56.788Z,14.15
2023-04-25T14:14:25.684Z,14.16
2023-04-25T14:16:55.267Z,14.18
2023-04-25T14:19:24.377Z,14.03
2023-04-25T14:21:53.012Z,13.96
2023-04-25T14:24:22.692Z,13.87
2023-04-25T14:26:50.976Z,13.89
2023-04-25T14:29:20.682Z,13.82
2023-04-25T14:31:50.025Z,13.74
2023-04-25T14:34:18.394Z,13.62
2023-04-25T14:36:48.292Z,13.52
2023-04-25T14:39:17.794Z,13.47
2023-04-25T14:41:46.723Z,13.36
2023-04-25T14:44:14.897Z,13.26
2023-04-25T14:46:47.004Z,13.14
2023-04-25T14:49:16.046Z,13.13
2023-04-25T14:51:44.811Z,13.05
2023-04-25T14:54:14.197Z,13.05
2023-04-25T14:56:42.409Z,13.02
2023-04-25T14:59:10.742Z,12.95
2023-04-25T15:01:41.452Z,12.92
2023-04-25T15:04:13.032Z,12.83
2023-04-25T15:06:41.413Z,12.77
2023-04-25T15:09:11.820Z,12.74
2023-04-25T15:11:40.245Z,12.76
2023-04-25T15:14:13.808Z,12.71
2023-04-25T15:16:42.233Z,12.69
2023-04-25T15:19:11.793Z,12.66
2023-04-25T15:21:40.044Z,12.55
2023-04-25T15:24:08.753Z,12.49
2023-04-25T15:26:37.046Z,12.43
2023-04-25T15:29:12.800Z,12.40
2023-04-25T15:31:41.294Z,12.43
2023-04-25T15:34:09.470Z,12.39
2023-04-25T15:36:39.153Z,12.37
2023-04-25T15:39:09.110Z,12.34
2023-04-25T15:41:38.953Z,12.30
2023-04-25T15:44:08.106Z,12.27
2023-04-25T15:46:36.504Z,12.18
2023-04-25T15:49:04.860Z,12.17
2023-04-25T15:51:35.303Z,12.14
2023-04-25T15:54:05.641Z,12.10
2023-04-25T15:56:33.913Z,12.18
2023-04-25T15:59:02.371Z,12.27
2023-04-25T16:01:31.329Z,12.31
2023-04-25T16:03:59.958Z,12.43
2023-04-25T16:06:28.977Z,12.49
2023-04-25T16:08:57.632Z,12.49
2023-04-25T16:11:27.528Z,12.53
2023-04-25T16:13:56.394Z,12.52
2023-04-25T16:16:24.638Z,12.49
2023-04-25T16:18:53.041Z,12.52
2023-04-25T16:21:22.081Z,12.51
2023-04-25T16:23:50.675Z,12.38
2023-04-25T16:26:19.083Z,12.23
2023-04-25T16:28:50.460Z,11.88
2023-04-25T16:31:18.975Z,11.49
2023-04-25T16:33:49.085Z,11.05
2023-04-25T16:36:19.469Z,10.76
2023-04-25T16:38:48.229Z,10.56
2023-04-25T16:41:16.721Z,10.41
2023-04-25T16:43:45.212Z,10.39
2023-04-25T16:46:15.064Z,10.32
2023-04-25T16:48:45.320Z,10.22
2023-04-25T16:51:13.937Z,10.14
2023-04-25T16:53:42.753Z,10.04
2023-04-25T16:56:12.909Z,10.01
2023-04-25T16:58:57.829Z,9.94
2023-04-25T17:01:28.662Z,9.97
2023-04-25T17:03:59.043Z,9.95
2023-04-25T17:06:29.387Z,10.00
2023-04-25T17:09:15.463Z,10.00
2023-04-25T17:11:46.697Z,10.00
2023-04-25T17:14:14.977Z,10.05
2023-04-25T17:16:47.907Z,10.09
2023-04-25T17:19:16.567Z,10.13
2023-04-25T17:21:45.857Z,10.20
2023-04-25T17:24:16.034Z,10.25
2023-04-25T17:26:46.258Z,10.23
2023-04-25T17:29:16.771Z,10.26
2023-04-25T17:31:46.876Z,10.26
2023-04-25T17:34:18.181Z,10.29
2023-04-25T17:36:48.438Z,10.28
2023-04-25T17:39:17.773Z,10.27
2023-04-25T17:41:46.705Z,10.23
2023-04-25T17:44:15.117Z,10.20
2023-04-25T17:47:03.092Z,10.14
2023-04-25T17:49:31.431Z,10.13
2023-04-25T17:51:59.798Z,10.03
2023-04-25T17:54:28.174Z,9.97
2023-04-25T17:56:56.692Z,9.91
2023-04-25T17:59:25.710Z,9.84
2023-04-25T18:01:56.972Z,9.83
2023-04-25T18:04:27.828Z,9.83
2023-04-25T18:06:59.013Z,9.79
2023-04-25T18:09:27.307Z,9.72
2023-04-25T18:11:58.520Z,9.66
2023-04-25T18:14:27.370Z,9.63
2023-04-25T18:17:00.187Z,9.59
2023-04-25T18:19:38.801Z,9.60
2023-04-25T18:22:07.244Z,9.55
2023-04-25T18:24:37.841Z,9.53
2023-04-25T18:27:06.535Z,9.51
2023-04-25T18:29:34.921Z,9.49
2023-04-25T18:32:06.709Z,9.52
2023-04-25T18:34:38.245Z,9.47
2023-04-25T18:37:07.686Z,9.50
2023-04-25T18:39:36.197Z,9.47
2023-04-25T18:42:06.973Z,9.44
2023-04-25T18:44:44.108Z,9.39
2023-04-25T18:47:18.649Z,9.38
2023-04-25T18:49:48.043Z,9.37
2023-04-25T18:52:16.445Z,9.28
2023-04-25T18:54:44.936Z,9.28
2023-04-25T18:57:15.197Z,9.25
2023-04-25T18:59:44.579Z,9.21
2023-04-25T19:02:16.286Z,9.22
2023-04-25T19:04:45.082Z,9.21
2023-04-25T19:07:15.272Z,9.15
2023-04-25T19:09:43.651Z,9.19
2023-04-25T19:12:12.404Z,9.14
2023-04-25T19:14:40.689Z,9.13
2023-04-25T19:17:09.187Z,9.04
2023-04-25T19:19:39.222Z,9.03
2023-04-25T19:22:07.758Z,8.98
2023-04-25T19:24:36.208Z,8.96
2023-04-25T19:27:04.979Z,8.93
2023-04-25T19:29:38.290Z,8.88
2023-04-25T19:32:07.099Z,8.89
2023-04-25T19:34:36.617Z,8.87
2023-04-25T19:37:07.218Z,8.86
2023-04-25T19:39:37.221Z,8.81
2023-04-25T19:42:06.803Z,8.76
2023-04-25T19:44:36.473Z,8.68
2023-04-25T19:47:04.770Z,8.61
2023-04-25T19:49:34.588Z,8.54
2023-04-25T19:52:03.929Z,8.52
2023-04-25T19:54:40.601Z,8.46
2023-04-25T19:57:09.667Z,8.43
2023-04-25T19:59:48.394Z,8.37
2023-04-25T20:02:18.469Z,8.31
2023-04-25T20:04:49.776Z,8.29
2023-04-25T20:07:20.217Z,8.27
2023-04-25T20:09:53.826Z,8.21
2023-04-25T20:12:22.208Z,8.19
2023-04-25T20:14:52.481Z,8.17
2023-04-25T20:17:23.089Z,8.20
2023-04-25T20:19:51.938Z,8.30
2023-04-25T20:22:20.536Z,8.34
2023-04-25T20:24:52.816Z,8.26
2023-04-25T20:27:23.504Z,8.22
2023-04-25T20:29:53.210Z,8.14
2023-04-25T20:32:21.702Z,8.09
2023-04-25T20:34:51.398Z,8.07
2023-04-25T20:37:19.893Z,8.07
2023-04-25T20:39:50.669Z,8.05
2023-04-25T20:42:21.516Z,7.99
2023-04-25T20:44:49.882Z,8.00
2023-04-25T20:47:18.194Z,7.98
2023-04-25T20:49:46.594Z,7.96
2023-04-25T20:52:15.441Z,7.91
2023-04-25T20:54:43.938Z,7.83
2023-04-25T20:57:13.595Z,7.76
2023-04-25T20:59:42.075Z,7.76
2023-04-25T21:02:13.924Z,7.70
2023-04-25T21:04:42.348Z,7.64
2023-04-25T21:07:12.894Z,7.58
2023-04-25T21:09:43.021Z,7.54
2023-04-25T21:12:11.783Z,7.54
2023-04-25T21:14:41.450Z,7.53
2023-04-25T21:17:09.761Z,7.48
2023-04-25T21:19:37.978Z,7.44
2023-04-25T21:22:07.233Z,7.35
2023-04-25T21:24:35.600Z,7.28
2023-04-25T21:27:09.978Z,7.27
2023-04-25T21:29:38.723Z,7.27
2023-04-25T21:32:09.062Z,7.27
2023-04-25T21:34:39.830Z,7.29
2023-04-25T21:37:08.312Z,7.27
2023-04-25T21:39:37.928Z,7.28
2023-04-25T21:42:09.157Z,7.29
2023-04-25T21:44:37.565Z,7.23
2023-04-25T21:47:08.337Z,7.25
2023-04-25T21:49:36.921Z,7.23
2023-04-25T21:52:05.574Z,7.19
2023-04-25T21:54:35.625Z,7.19
2023-04-25T21:57:04.741Z,7.18
2023-04-25T21:59:33.213Z,7.18
2023-04-25T22:02:01.463Z,7.19
2023-04-25T22:04:31.498Z,7.18
2023-04-25T22:07:00.112Z,7.20
2023-04-25T22:09:28.437Z,7.21
2023-04-25T22:12:00.476Z,7.14
2023-04-25T22:14:29.659Z,7.07
2023-04-25T22:16:57.963Z,7.13
2023-04-25T22:19:26.483Z,7.15
2023-04-25T22:21:56.247Z,7.14
2023-04-25T22:24:28.369Z,7.20
2023-04-25T22:26:59.306Z,7.22
2023-04-25T22:29:27.587Z,7.33
2023-04-25T22:31:56.176Z,7.34
2023-04-25T22:34:24.565Z,7.44
2023-04-25T22:36:53.210Z,7.46
2023-04-25T22:39:24.672Z,7.45
2023-04-25T22:41:54.326Z,7.44
2023-04-25T22:44:22.871Z,7.44
2023-04-25T22:46:51.122Z,7.41
2023-04-25T22:49:19.279Z,7.36
2023-04-25T22:51:49.119Z,7.28
2023-04-25T22:54:17.751Z,7.31
2023-04-25T22:56:47.384Z,7.27
2023-04-25T22:59:16.247Z,7.19
2023-04-25T23:01:45.049Z,7.18
2023-04-25T23:04:16.776Z,7.17
2023-04-25T23:06:45.481Z,7.15
2023-04-25T23:09:14.370Z,7.13
2023-04-25T23:11:43.579Z,7.10
2023-04-25T23:14:13.786Z,7.07
2023-04-25T23:16:42.149Z,7.05
2023-04-25T23:19:10.759Z,7.04
2023-04-25T23:21:41.095Z,7.01
2023-04-25T23:24:10.007Z,7.02
2023-04-25T23:26:38.502Z,7.05
2023-04-25T23:29:07.139Z,7.03
2023-04-25T23:31:37.372Z,7.05
2023-04-25T23:34:05.640Z,7.03
2023-04-25T23:36:34.748Z,7.00
2023-04-25T23:39:05.688Z,6.98
2023-04-25T23:41:34.926Z,6.95
2023-04-25T23:44:07.985Z,6.88
2023-04-25T23:46:37.834Z,6.85
2023-04-25T23:49:11.841Z,6.81
2023-04-25T23:51:40.254Z,6.75
2023-04-25T23:54:11.690Z,6.71
2023-04-25T23:56:42.499Z,6.67
2023-04-25T23:59:10.802Z,6.66
